sensor_id;sensor_type;location;lat;lon;timestamp;P1;durP1;ratioP1;P2;durP2;ratioP2
4694;SDS011;2361;49.540;8.390;2023-12-20T00:01:53;2.10;;;2.00;;
4694;SDS011;2361;49.540;8.390;2023-12-20T00:04:15;2.15;;;2.05;;
4694;SDS011;2361;49.540;8.390;2023-12-20T00:06:37;2.08;;;1.98;;
4694;SDS011;2361;49.540;8.390;2023-12-20T00:08:59;2.25;;;2.05;;
4694;SDS011;2361;49.540;8.390;2023-12-20T00:11:21;2.22;;;2.00;;
4694;SDS011;2361;49.540;8.390;2023-12-20T00:13:43;2.30;;;2.10;;
4694;SDS011;2361;49.540;8.390;2023-12-20T00:16:07;2.30;;;2.10;;
4694;SDS011;2361;49.540;8.390;2023-12-20T00:18:29;2.00;;;1.90;;
4694;SDS011;2361;49.540;8.390;2023-12-20T00:20:51;2.30;;;2.10;;
4694;SDS011;2361;49.540;8.390;2023-12-20T00:23:13;2.20;;;2.00;;
4694;SDS011;2361;49.540;8.390;2023-12-20T00:25:35;2.08;;;1.88;;
4694;SDS011;2361;49.540;8.390;2023-12-20T00:27:56;2.40;;;1.70;;
4694;SDS011;2361;49.540;8.390;2023-12-20T00:30:18;1.92;;;1.70;;
4694;SDS011;2361;49.540;8.390;2023-12-20T00:32:40;1.65;;;1.55;;
4694;SDS011;2361;49.540;8.390;2023-12-20T00:35:07;1.60;;;1.50;;
4694;SDS011;2361;49.540;8.390;2023-12-20T00:37:29;1.40;;;1.40;;
4694;SDS011;2361;49.540;8.390;2023-12-20T00:39:51;1.40;;;1.30;;
4694;SDS011;2361;49.540;8.390;2023-12-20T00:42:13;1.25;;;1.15;;
4694;SDS011;2361;49.540;8.390;2023-12-20T00:44:35;1.48;;;1.42;;
4694;SDS011;2361;49.540;8.390;2023-12-20T00:46:57;1.10;;;1.10;;
4694;SDS011;2361;49.540;8.390;2023-12-20T00:49:19;1.50;;;1.40;;
4694;SDS011;2361;49.540;8.390;2023-12-20T00:51:41;1.00;;;1.00;;
4694;SDS011;2361;49.540;8.390;2023-12-20T00:54:03;0.90;;;0.90;;
4694;SDS011;2361;49.540;8.390;2023-12-20T00:56:25;0.90;;;0.90;;
4694;SDS011;2361;49.540;8.390;2023-12-20T00:58:47;0.80;;;0.80;;
4694;SDS011;2361;49.540;8.390;2023-12-20T01:01:09;0.70;;;0.70;;
4694;SDS011;2361;49.540;8.390;2023-12-20T01:03:31;0.90;;;0.90;;
4694;SDS011;2361;49.540;8.390;2023-12-20T01:05:53;0.70;;;0.70;;
4694;SDS011;2361;49.540;8.390;2023-12-20T01:08:14;0.60;;;0.60;;
4694;SDS011;2361;49.540;8.390;2023-12-20T01:10:36;0.60;;;0.60;;
4694;SDS011;2361;49.540;8.390;2023-12-20T01:12:58;0.60;;;0.60;;
4694;SDS011;2361;49.540;8.390;2023-12-20T01:15:20;0.67;;;0.67;;
4694;SDS011;2361;49.540;8.390;2023-12-20T01:17:42;0.60;;;0.60;;
4694;SDS011;2361;49.540;8.390;2023-12-20T01:20:05;1.40;;;0.70;;
4694;SDS011;2361;49.540;8.390;2023-12-20T01:22:28;0.60;;;0.60;;
4694;SDS011;2361;49.540;8.390;2023-12-20T01:24:49;0.50;;;0.50;;
4694;SDS011;2361;49.540;8.390;2023-12-20T01:27:12;0.70;;;0.70;;
4694;SDS011;2361;49.540;8.390;2023-12-20T01:29:34;0.60;;;0.60;;
4694;SDS011;2361;49.540;8.390;2023-12-20T01:31:56;0.60;;;0.60;;
4694;SDS011;2361;49.540;8.390;2023-12-20T01:34:18;0.60;;;0.60;;
4694;SDS011;2361;49.540;8.390;2023-12-20T01:36:40;0.50;;;0.50;;
4694;SDS011;2361;49.540;8.390;2023-12-20T01:39:02;0.50;;;0.50;;
4694;SDS011;2361;49.540;8.390;2023-12-20T01:41:28;0.50;;;0.50;;
4694;SDS011;2361;49.540;8.390;2023-12-20T01:43:50;0.50;;;0.50;;
4694;SDS011;2361;49.540;8.390;2023-12-20T01:46:12;0.50;;;0.50;;
4694;SDS011;2361;49.540;8.390;2023-12-20T01:48:34;0.50;;;0.50;;
4694;SDS011;2361;49.540;8.390;2023-12-20T01:50:56;0.50;;;0.50;;
4694;SDS011;2361;49.540;8.390;2023-12-20T01:53:20;1.40;;;0.47;;
4694;SDS011;2361;49.540;8.390;2023-12-20T01:55:45;0.50;;;0.50;;
4694;SDS011;2361;49.540;8.390;2023-12-20T01:58:12;0.50;;;0.50;;
4694;SDS011;2361;49.540;8.390;2023-12-20T02:00:34;0.70;;;0.50;;
4694;SDS011;2361;49.540;8.390;2023-12-20T02:02:59;0.50;;;0.50;;
4694;SDS011;2361;49.540;8.390;2023-12-20T02:05:23;0.50;;;0.50;;
4694;SDS011;2361;49.540;8.390;2023-12-20T02:07:46;0.50;;;0.50;;
4694;SDS011;2361;49.540;8.390;2023-12-20T02:10:09;0.40;;;0.40;;
4694;SDS011;2361;49.540;8.390;2023-12-20T02:12:31;1.30;;;0.50;;
4694;SDS011;2361;49.540;8.390;2023-12-20T02:14:52;0.40;;;0.40;;
4694;SDS011;2361;49.540;8.390;2023-12-20T02:17:15;0.50;;;0.50;;
4694;SDS011;2361;49.540;8.390;2023-12-20T02:19:37;0.40;;;0.40;;
4694;SDS011;2361;49.540;8.390;2023-12-20T02:22:07;0.50;;;0.50;;
4694;SDS011;2361;49.540;8.390;2023-12-20T02:24:33;0.43;;;0.43;;
4694;SDS011;2361;49.540;8.390;2023-12-20T02:26:55;0.50;;;0.50;;
4694;SDS011;2361;49.540;8.390;2023-12-20T02:29:16;0.57;;;0.57;;
4694;SDS011;2361;49.540;8.390;2023-12-20T02:31:38;0.50;;;0.50;;
4694;SDS011;2361;49.540;8.390;2023-12-20T02:34:00;0.60;;;0.40;;
4694;SDS011;2361;49.540;8.390;2023-12-20T02:36:22;0.40;;;0.40;;
4694;SDS011;2361;49.540;8.390;2023-12-20T02:38:44;0.60;;;0.45;;
4694;SDS011;2361;49.540;8.390;2023-12-20T02:41:06;0.40;;;0.40;;
4694;SDS011;2361;49.540;8.390;2023-12-20T02:43:28;0.50;;;0.50;;
4694;SDS011;2361;49.540;8.390;2023-12-20T02:45:50;1.48;;;0.57;;
4694;SDS011;2361;49.540;8.390;2023-12-20T02:48:12;0.50;;;0.50;;
4694;SDS011;2361;49.540;8.390;2023-12-20T02:50:34;0.60;;;0.60;;
4694;SDS011;2361;49.540;8.390;2023-12-20T02:52:56;0.50;;;0.50;;
4694;SDS011;2361;49.540;8.390;2023-12-20T02:55:18;0.60;;;0.60;;
4694;SDS011;2361;49.540;8.390;2023-12-20T02:57:40;0.60;;;0.60;;
4694;SDS011;2361;49.540;8.390;2023-12-20T03:00:03;0.60;;;0.60;;
4694;SDS011;2361;49.540;8.390;2023-12-20T03:02:26;0.50;;;0.50;;
4694;SDS011;2361;49.540;8.390;2023-12-20T03:04:48;1.20;;;0.50;;
4694;SDS011;2361;49.540;8.390;2023-12-20T03:07:10;1.50;;;0.50;;
4694;SDS011;2361;49.540;8.390;2023-12-20T03:09:33;0.60;;;0.60;;
4694;SDS011;2361;49.540;8.390;2023-12-20T03:12:15;0.60;;;0.60;;
4694;SDS011;2361;49.540;8.390;2023-12-20T03:14:37;1.10;;;1.00;;
4694;SDS011;2361;49.540;8.390;2023-12-20T03:16:58;0.50;;;0.50;;
4694;SDS011;2361;49.540;8.390;2023-12-20T03:19:21;0.50;;;0.50;;
4694;SDS011;2361;49.540;8.390;2023-12-20T03:21:43;0.50;;;0.50;;
4694;SDS011;2361;49.540;8.390;2023-12-20T03:24:05;0.50;;;0.50;;
4694;SDS011;2361;49.540;8.390;2023-12-20T03:26:27;0.50;;;0.50;;
4694;SDS011;2361;49.540;8.390;2023-12-20T03:28:49;0.50;;;0.50;;
4694;SDS011;2361;49.540;8.390;2023-12-20T03:31:11;0.50;;;0.50;;
4694;SDS011;2361;49.540;8.390;2023-12-20T03:33:33;0.50;;;0.50;;
4694;SDS011;2361;49.540;8.390;2023-12-20T03:35:55;0.50;;;0.50;;
4694;SDS011;2361;49.540;8.390;2023-12-20T03:38:17;0.50;;;0.50;;
4694;SDS011;2361;49.540;8.390;2023-12-20T03:40:39;0.50;;;0.50;;
4694;SDS011;2361;49.540;8.390;2023-12-20T03:43:01;0.60;;;0.60;;
4694;SDS011;2361;49.540;8.390;2023-12-20T03:45:23;0.60;;;0.60;;
4694;SDS011;2361;49.540;8.390;2023-12-20T03:47:45;0.70;;;0.70;;
4694;SDS011;2361;49.540;8.390;2023-12-20T03:50:07;0.70;;;0.70;;
4694;SDS011;2361;49.540;8.390;2023-12-20T03:52:29;0.70;;;0.70;;
4694;SDS011;2361;49.540;8.390;2023-12-20T03:54:51;0.70;;;0.70;;
4694;SDS011;2361;49.540;8.390;2023-12-20T03:57:13;0.60;;;0.60;;
4694;SDS011;2361;49.540;8.390;2023-12-20T03:59:38;0.60;;;0.60;;
4694;SDS011;2361;49.540;8.390;2023-12-20T04:02:00;0.70;;;0.70;;
4694;SDS011;2361;49.540;8.390;2023-12-20T04:04:23;0.80;;;0.80;;
4694;SDS011;2361;49.540;8.390;2023-12-20T04:06:45;0.90;;;0.90;;
4694;SDS011;2361;49.540;8.390;2023-12-20T04:09:07;1.10;;;1.00;;
4694;SDS011;2361;49.540;8.390;2023-12-20T04:11:30;0.70;;;0.70;;
4694;SDS011;2361;49.540;8.390;2023-12-20T04:13:52;1.15;;;1.00;;
4694;SDS011;2361;49.540;8.390;2023-12-20T04:16:14;2.30;;;0.80;;
4694;SDS011;2361;49.540;8.390;2023-12-20T04:18:36;0.90;;;0.90;;
4694;SDS011;2361;49.540;8.390;2023-12-20T04:20:58;0.80;;;0.80;;
4694;SDS011;2361;49.540;8.390;2023-12-20T04:23:20;0.70;;;0.70;;
4694;SDS011;2361;49.540;8.390;2023-12-20T04:25:42;0.80;;;0.80;;
4694;SDS011;2361;49.540;8.390;2023-12-20T04:28:04;0.80;;;0.80;;
4694;SDS011;2361;49.540;8.390;2023-12-20T04:30:26;1.30;;;0.80;;
4694;SDS011;2361;49.540;8.390;2023-12-20T04:32:48;0.80;;;0.80;;
4694;SDS011;2361;49.540;8.390;2023-12-20T04:35:10;1.00;;;1.00;;
4694;SDS011;2361;49.540;8.390;2023-12-20T04:37:32;1.10;;;1.10;;
4694;SDS011;2361;49.540;8.390;2023-12-20T04:39:53;1.00;;;1.00;;
4694;SDS011;2361;49.540;8.390;2023-12-20T04:42:16;1.10;;;1.10;;
4694;SDS011;2361;49.540;8.390;2023-12-20T04:44:38;1.10;;;1.10;;
4694;SDS011;2361;49.540;8.390;2023-12-20T04:47:00;1.30;;;1.30;;
4694;SDS011;2361;49.540;8.390;2023-12-20T04:49:22;1.27;;;1.27;;
4694;SDS011;2361;49.540;8.390;2023-12-20T04:51:44;1.20;;;1.20;;
4694;SDS011;2361;49.540;8.390;2023-12-20T04:54:06;1.30;;;1.30;;
4694;SDS011;2361;49.540;8.390;2023-12-20T04:56:28;2.00;;;1.20;;
4694;SDS011;2361;49.540;8.390;2023-12-20T04:58:50;1.30;;;1.20;;
4694;SDS011;2361;49.540;8.390;2023-12-20T05:01:12;1.30;;;1.20;;
4694;SDS011;2361;49.540;8.390;2023-12-20T05:03:34;1.10;;;1.10;;
4694;SDS011;2361;49.540;8.390;2023-12-20T05:05:57;1.80;;;1.70;;
4694;SDS011;2361;49.540;8.390;2023-12-20T05:08:19;1.60;;;1.50;;
4694;SDS011;2361;49.540;8.390;2023-12-20T05:10:41;2.40;;;1.40;;
4694;SDS011;2361;49.540;8.390;2023-12-20T05:13:03;1.63;;;1.57;;
4694;SDS011;2361;49.540;8.390;2023-12-20T05:15:25;1.70;;;1.60;;
4694;SDS011;2361;49.540;8.390;2023-12-20T05:17:47;1.58;;;1.58;;
4694;SDS011;2361;49.540;8.390;2023-12-20T05:20:09;1.60;;;1.50;;
4694;SDS011;2361;49.540;8.390;2023-12-20T05:22:31;1.90;;;1.80;;
4694;SDS011;2361;49.540;8.390;2023-12-20T05:24:54;2.40;;;2.20;;
4694;SDS011;2361;49.540;8.390;2023-12-20T05:27:16;1.88;;;1.77;;
4694;SDS011;2361;49.540;8.390;2023-12-20T05:29:38;2.05;;;1.95;;
4694;SDS011;2361;49.540;8.390;2023-12-20T05:31:59;2.00;;;1.90;;
4694;SDS011;2361;49.540;8.390;2023-12-20T05:34:21;2.08;;;1.98;;
4694;SDS011;2361;49.540;8.390;2023-12-20T05:36:43;2.20;;;2.00;;
4694;SDS011;2361;49.540;8.390;2023-12-20T05:39:05;2.60;;;2.40;;
4694;SDS011;2361;49.540;8.390;2023-12-20T05:41:29;2.10;;;1.90;;
4694;SDS011;2361;49.540;8.390;2023-12-20T05:43:51;2.60;;;2.40;;
4694;SDS011;2361;49.540;8.390;2023-12-20T05:46:13;2.80;;;2.50;;
4694;SDS011;2361;49.540;8.390;2023-12-20T05:48:35;2.40;;;2.28;;
4694;SDS011;2361;49.540;8.390;2023-12-20T05:50:57;3.07;;;2.77;;
4694;SDS011;2361;49.540;8.390;2023-12-20T05:53:19;2.80;;;2.60;;
4694;SDS011;2361;49.540;8.390;2023-12-20T05:55:44;3.10;;;2.80;;
4694;SDS011;2361;49.540;8.390;2023-12-20T05:58:06;3.20;;;2.90;;
4694;SDS011;2361;49.540;8.390;2023-12-20T06:00:28;2.70;;;2.50;;
4694;SDS011;2361;49.540;8.390;2023-12-20T06:02:49;2.75;;;2.60;;
4694;SDS011;2361;49.540;8.390;2023-12-20T06:05:11;2.88;;;2.60;;
4694;SDS011;2361;49.540;8.390;2023-12-20T06:07:33;2.93;;;2.73;;
4694;SDS011;2361;49.540;8.390;2023-12-20T06:09:55;2.70;;;2.50;;
4694;SDS011;2361;49.540;8.390;2023-12-20T06:12:17;2.60;;;2.40;;
4694;SDS011;2361;49.540;8.390;2023-12-20T06:14:39;3.20;;;2.90;;
4694;SDS011;2361;49.540;8.390;2023-12-20T06:17:01;2.70;;;2.50;;
4694;SDS011;2361;49.540;8.390;2023-12-20T06:19:23;2.70;;;2.50;;
4694;SDS011;2361;49.540;8.390;2023-12-20T06:21:46;2.58;;;2.38;;
4694;SDS011;2361;49.540;8.390;2023-12-20T06:24:08;2.85;;;2.60;;
4694;SDS011;2361;49.540;8.390;2023-12-20T06:26:30;2.63;;;2.42;;
4694;SDS011;2361;49.540;8.390;2023-12-20T06:28:52;2.45;;;2.25;;
4694;SDS011;2361;49.540;8.390;2023-12-20T06:31:14;2.22;;;1.95;;
4694;SDS011;2361;49.540;8.390;2023-12-20T06:33:38;1.90;;;1.80;;
4694;SDS011;2361;49.540;8.390;2023-12-20T06:36:02;3.10;;;2.10;;
4694;SDS011;2361;49.540;8.390;2023-12-20T06:38:24;2.25;;;2.00;;
4694;SDS011;2361;49.540;8.390;2023-12-20T06:40:46;2.10;;;1.85;;
4694;SDS011;2361;49.540;8.390;2023-12-20T06:43:08;1.93;;;1.83;;
4694;SDS011;2361;49.540;8.390;2023-12-20T06:45:46;1.83;;;1.73;;
4694;SDS011;2361;49.540;8.390;2023-12-20T06:48:08;1.80;;;1.70;;
4694;SDS011;2361;49.540;8.390;2023-12-20T06:50:32;1.95;;;1.85;;
4694;SDS011;2361;49.540;8.390;2023-12-20T06:52:54;2.20;;;2.00;;
4694;SDS011;2361;49.540;8.390;2023-12-20T06:55:16;1.80;;;1.70;;
4694;SDS011;2361;49.540;8.390;2023-12-20T06:57:38;1.70;;;1.60;;
4694;SDS011;2361;49.540;8.390;2023-12-20T07:00:00;2.17;;;1.90;;
4694;SDS011;2361;49.540;8.390;2023-12-20T07:02:22;1.63;;;1.50;;
4694;SDS011;2361;49.540;8.390;2023-12-20T07:04:44;1.70;;;1.60;;
4694;SDS011;2361;49.540;8.390;2023-12-20T07:07:06;1.67;;;1.58;;
4694;SDS011;2361;49.540;8.390;2023-12-20T07:09:29;2.00;;;1.70;;
4694;SDS011;2361;49.540;8.390;2023-12-20T07:11:51;1.60;;;1.50;;
4694;SDS011;2361;49.540;8.390;2023-12-20T07:14:13;1.73;;;1.63;;
4694;SDS011;2361;49.540;8.390;2023-12-20T07:16:35;2.40;;;1.75;;
4694;SDS011;2361;49.540;8.390;2023-12-20T07:18:57;1.60;;;1.50;;
4694;SDS011;2361;49.540;8.390;2023-12-20T07:21:19;2.53;;;1.48;;
4694;SDS011;2361;49.540;8.390;2023-12-20T07:23:41;1.60;;;1.50;;
4694;SDS011;2361;49.540;8.390;2023-12-20T07:26:03;1.70;;;1.60;;
4694;SDS011;2361;49.540;8.390;2023-12-20T07:28:25;1.55;;;1.30;;
4694;SDS011;2361;49.540;8.390;2023-12-20T07:30:47;1.90;;;1.20;;
4694;SDS011;2361;49.540;8.390;2023-12-20T07:33:10;1.42;;;1.33;;
4694;SDS011;2361;49.540;8.390;2023-12-20T07:35:33;1.55;;;1.45;;
4694;SDS011;2361;49.540;8.390;2023-12-20T07:37:55;1.90;;;1.50;;
4694;SDS011;2361;49.540;8.390;2023-12-20T07:40:17;3.15;;;1.50;;
4694;SDS011;2361;49.540;8.390;2023-12-20T07:42:39;1.50;;;1.40;;
4694;SDS011;2361;49.540;8.390;2023-12-20T07:45:01;1.63;;;1.52;;
4694;SDS011;2361;49.540;8.390;2023-12-20T07:47:24;1.00;;;1.00;;
4694;SDS011;2361;49.540;8.390;2023-12-20T07:49:48;1.50;;;1.40;;
4694;SDS011;2361;49.540;8.390;2023-12-20T07:52:10;1.50;;;1.40;;
4694;SDS011;2361;49.540;8.390;2023-12-20T07:54:32;1.88;;;1.40;;
4694;SDS011;2361;49.540;8.390;2023-12-20T07:56:55;1.40;;;1.30;;
4694;SDS011;2361;49.540;8.390;2023-12-20T07:59:18;1.20;;;1.20;;
4694;SDS011;2361;49.540;8.390;2023-12-20T08:01:52;3.03;;;1.40;;
4694;SDS011;2361;49.540;8.390;2023-12-20T08:04:14;1.50;;;1.30;;
4694;SDS011;2361;49.540;8.390;2023-12-20T08:06:36;1.60;;;1.10;;
4694;SDS011;2361;49.540;8.390;2023-12-20T08:08:58;2.50;;;1.20;;
4694;SDS011;2361;49.540;8.390;2023-12-20T08:11:27;2.80;;;1.40;;
4694;SDS011;2361;49.540;8.390;2023-12-20T08:13:49;1.60;;;1.40;;
4694;SDS011;2361;49.540;8.390;2023-12-20T08:16:12;1.80;;;1.30;;
4694;SDS011;2361;49.540;8.390;2023-12-20T08:18:35;1.60;;;1.50;;
4694;SDS011;2361;49.540;8.390;2023-12-20T08:20:56;1.30;;;1.20;;
4694;SDS011;2361;49.540;8.390;2023-12-20T08:23:18;1.90;;;1.10;;
4694;SDS011;2361;49.540;8.390;2023-12-20T08:25:44;1.98;;;1.40;;
4694;SDS011;2361;49.540;8.390;2023-12-20T08:28:07;1.20;;;1.10;;
4694;SDS011;2361;49.540;8.390;2023-12-20T08:30:29;2.17;;;1.40;;
4694;SDS011;2361;49.540;8.390;2023-12-20T08:32:52;2.50;;;1.25;;
4694;SDS011;2361;49.540;8.390;2023-12-20T08:35:14;1.60;;;1.05;;
4694;SDS011;2361;49.540;8.390;2023-12-20T08:37:36;2.15;;;1.10;;
4694;SDS011;2361;49.540;8.390;2023-12-20T08:39:58;1.25;;;1.10;;
4694;SDS011;2361;49.540;8.390;2023-12-20T08:42:20;2.05;;;1.13;;
4694;SDS011;2361;49.540;8.390;2023-12-20T08:44:42;2.80;;;1.35;;
4694;SDS011;2361;49.540;8.390;2023-12-20T08:47:04;1.08;;;1.08;;
4694;SDS011;2361;49.540;8.390;2023-12-20T08:49:26;1.60;;;1.42;;
4694;SDS011;2361;49.540;8.390;2023-12-20T08:51:49;2.10;;;1.10;;
4694;SDS011;2361;49.540;8.390;2023-12-20T08:54:11;2.20;;;1.50;;
4694;SDS011;2361;49.540;8.390;2023-12-20T08:56:34;2.97;;;1.30;;
4694;SDS011;2361;49.540;8.390;2023-12-20T08:58:56;3.22;;;1.45;;
4694;SDS011;2361;49.540;8.390;2023-12-20T09:01:18;1.80;;;1.50;;
4694;SDS011;2361;49.540;8.390;2023-12-20T09:03:40;1.50;;;1.33;;
4694;SDS011;2361;49.540;8.390;2023-12-20T09:06:02;2.80;;;1.50;;
4694;SDS011;2361;49.540;8.390;2023-12-20T09:08:25;1.55;;;1.38;;
4694;SDS011;2361;49.540;8.390;2023-12-20T09:10:46;2.63;;;1.20;;
4694;SDS011;2361;49.540;8.390;2023-12-20T09:13:08;2.00;;;1.20;;
4694;SDS011;2361;49.540;8.390;2023-12-20T09:15:30;2.88;;;1.45;;
4694;SDS011;2361;49.540;8.390;2023-12-20T09:17:57;2.80;;;1.33;;
4694;SDS011;2361;49.540;8.390;2023-12-20T09:20:19;3.83;;;1.70;;
4694;SDS011;2361;49.540;8.390;2023-12-20T09:22:42;2.17;;;1.58;;
4694;SDS011;2361;49.540;8.390;2023-12-20T09:25:04;1.20;;;1.10;;
4694;SDS011;2361;49.540;8.390;2023-12-20T09:27:27;1.60;;;1.20;;
4694;SDS011;2361;49.540;8.390;2023-12-20T09:29:49;3.05;;;1.50;;
4694;SDS011;2361;49.540;8.390;2023-12-20T09:32:11;2.80;;;2.50;;
4694;SDS011;2361;49.540;8.390;2023-12-20T09:34:33;4.15;;;2.70;;
4694;SDS011;2361;49.540;8.390;2023-12-20T09:36:55;4.50;;;2.50;;
4694;SDS011;2361;49.540;8.390;2023-12-20T09:39:17;2.92;;;1.50;;
4694;SDS011;2361;49.540;8.390;2023-12-20T09:41:43;2.00;;;1.50;;
4694;SDS011;2361;49.540;8.390;2023-12-20T09:44:07;2.40;;;1.30;;
4694;SDS011;2361;49.540;8.390;2023-12-20T09:46:35;2.78;;;1.40;;
4694;SDS011;2361;49.540;8.390;2023-12-20T09:49:01;3.40;;;1.50;;
4694;SDS011;2361;49.540;8.390;2023-12-20T09:51:23;3.60;;;1.50;;
4694;SDS011;2361;49.540;8.390;2023-12-20T09:53:46;4.30;;;1.40;;
4694;SDS011;2361;49.540;8.390;2023-12-20T09:56:10;2.95;;;1.30;;
4694;SDS011;2361;49.540;8.390;2023-12-20T09:58:35;4.00;;;1.50;;
4694;SDS011;2361;49.540;8.390;2023-12-20T10:00:59;3.75;;;1.80;;
4694;SDS011;2361;49.540;8.390;2023-12-20T10:03:24;2.08;;;1.40;;
4694;SDS011;2361;49.540;8.390;2023-12-20T10:05:49;4.73;;;1.50;;
4694;SDS011;2361;49.540;8.390;2023-12-20T10:08:15;4.35;;;1.40;;
4694;SDS011;2361;49.540;8.390;2023-12-20T10:10:37;1.80;;;1.37;;
4694;SDS011;2361;49.540;8.390;2023-12-20T10:13:09;4.23;;;1.63;;
4694;SDS011;2361;49.540;8.390;2023-12-20T10:15:36;3.22;;;1.40;;
4694;SDS011;2361;49.540;8.390;2023-12-20T10:17:59;2.47;;;1.60;;
4694;SDS011;2361;49.540;8.390;2023-12-20T10:20:22;3.67;;;1.58;;
4694;SDS011;2361;49.540;8.390;2023-12-20T10:22:44;2.10;;;1.40;;
4694;SDS011;2361;49.540;8.390;2023-12-20T10:25:07;4.45;;;1.40;;
4694;SDS011;2361;49.540;8.390;2023-12-20T10:27:29;3.13;;;1.50;;
4694;SDS011;2361;49.540;8.390;2023-12-20T10:29:51;1.90;;;1.42;;
4694;SDS011;2361;49.540;8.390;2023-12-20T10:34:46;1.90;;;1.50;;
4694;SDS011;2361;49.540;8.390;2023-12-20T10:37:08;5.72;;;1.33;;
4694;SDS011;2361;49.540;8.390;2023-12-20T10:39:30;2.30;;;1.20;;
4694;SDS011;2361;49.540;8.390;2023-12-20T10:41:53;2.60;;;1.20;;
4694;SDS011;2361;49.540;8.390;2023-12-20T10:44:15;3.28;;;0.90;;
4694;SDS011;2361;49.540;8.390;2023-12-20T10:46:37;4.15;;;1.70;;
4694;SDS011;2361;49.540;8.390;2023-12-20T10:49:04;1.70;;;0.85;;
4694;SDS011;2361;49.540;8.390;2023-12-20T10:51:28;1.50;;;1.20;;
4694;SDS011;2361;49.540;8.390;2023-12-20T10:53:53;2.22;;;1.67;;
4694;SDS011;2361;49.540;8.390;2023-12-20T10:56:17;4.43;;;1.30;;
4694;SDS011;2361;49.540;8.390;2023-12-20T10:58:39;2.75;;;1.50;;
4694;SDS011;2361;49.540;8.390;2023-12-20T11:01:04;4.22;;;1.40;;
4694;SDS011;2361;49.540;8.390;2023-12-20T11:03:27;4.05;;;1.50;;
4694;SDS011;2361;49.540;8.390;2023-12-20T11:05:57;2.80;;;1.50;;
4694;SDS011;2361;49.540;8.390;2023-12-20T11:08:30;2.50;;;1.50;;
4694;SDS011;2361;49.540;8.390;2023-12-20T11:11:14;4.13;;;1.52;;
4694;SDS011;2361;49.540;8.390;2023-12-20T11:14:05;1.70;;;1.60;;
4694;SDS011;2361;49.540;8.390;2023-12-20T11:16:33;3.95;;;1.75;;
4694;SDS011;2361;49.540;8.390;2023-12-20T11:19:12;3.78;;;1.70;;
4694;SDS011;2361;49.540;8.390;2023-12-20T11:21:36;2.60;;;1.40;;
4694;SDS011;2361;49.540;8.390;2023-12-20T11:23:59;2.47;;;1.70;;
4694;SDS011;2361;49.540;8.390;2023-12-20T11:26:22;5.22;;;1.70;;
4694;SDS011;2361;49.540;8.390;2023-12-20T11:28:50;1.65;;;1.55;;
4694;SDS011;2361;49.540;8.390;2023-12-20T11:31:12;2.20;;;1.60;;
4694;SDS011;2361;49.540;8.390;2023-12-20T11:33:37;1.33;;;1.23;;
4694;SDS011;2361;49.540;8.390;2023-12-20T11:36:00;4.00;;;1.80;;
4694;SDS011;2361;49.540;8.390;2023-12-20T11:38:22;3.47;;;2.25;;
4694;SDS011;2361;49.540;8.390;2023-12-20T11:40:45;3.58;;;1.98;;
4694;SDS011;2361;49.540;8.390;2023-12-20T11:46:01;4.72;;;2.10;;
4694;SDS011;2361;49.540;8.390;2023-12-20T11:48:28;2.78;;;2.00;;
4694;SDS011;2361;49.540;8.390;2023-12-20T11:50:52;3.38;;;2.10;;
4694;SDS011;2361;49.540;8.390;2023-12-20T11:53:14;5.07;;;1.80;;
4694;SDS011;2361;49.540;8.390;2023-12-20T11:55:36;3.37;;;1.70;;
4694;SDS011;2361;49.540;8.390;2023-12-20T11:57:58;2.40;;;2.20;;
4694;SDS011;2361;49.540;8.390;2023-12-20T12:00:20;3.28;;;2.20;;
4694;SDS011;2361;49.540;8.390;2023-12-20T12:02:42;3.05;;;2.10;;
4694;SDS011;2361;49.540;8.390;2023-12-20T12:05:08;2.55;;;2.05;;
4694;SDS011;2361;49.540;8.390;2023-12-20T12:07:30;3.75;;;2.15;;
4694;SDS011;2361;49.540;8.390;2023-12-20T12:09:53;3.15;;;1.83;;
4694;SDS011;2361;49.540;8.390;2023-12-20T12:12:15;3.92;;;1.92;;
4694;SDS011;2361;49.540;8.390;2023-12-20T12:14:37;2.70;;;2.10;;
4694;SDS011;2361;49.540;8.390;2023-12-20T12:17:01;3.30;;;1.90;;
4694;SDS011;2361;49.540;8.390;2023-12-20T12:19:24;2.53;;;1.90;;
4694;SDS011;2361;49.540;8.390;2023-12-20T12:21:47;7.40;;;1.90;;
4694;SDS011;2361;49.540;8.390;2023-12-20T12:24:10;4.05;;;1.85;;
4694;SDS011;2361;49.540;8.390;2023-12-20T12:26:33;3.67;;;2.00;;
4694;SDS011;2361;49.540;8.390;2023-12-20T12:28:54;3.25;;;2.10;;
4694;SDS011;2361;49.540;8.390;2023-12-20T12:31:16;2.20;;;2.10;;
4694;SDS011;2361;49.540;8.390;2023-12-20T12:33:38;4.53;;;2.20;;
4694;SDS011;2361;49.540;8.390;2023-12-20T12:36:02;3.00;;;1.60;;
4694;SDS011;2361;49.540;8.390;2023-12-20T12:38:26;2.22;;;1.63;;
4694;SDS011;2361;49.540;8.390;2023-12-20T12:40:49;2.38;;;1.50;;
4694;SDS011;2361;49.540;8.390;2023-12-20T12:43:11;3.50;;;2.00;;
4694;SDS011;2361;49.540;8.390;2023-12-20T12:45:33;2.72;;;2.10;;
4694;SDS011;2361;49.540;8.390;2023-12-20T12:47:55;4.50;;;1.80;;
4694;SDS011;2361;49.540;8.390;2023-12-20T12:50:17;4.45;;;2.20;;
4694;SDS011;2361;49.540;8.390;2023-12-20T12:52:40;3.00;;;1.70;;
4694;SDS011;2361;49.540;8.390;2023-12-20T12:55:02;2.75;;;2.00;;
4694;SDS011;2361;49.540;8.390;2023-12-20T12:57:26;2.47;;;1.60;;
4694;SDS011;2361;49.540;8.390;2023-12-20T12:59:48;2.13;;;1.45;;
4694;SDS011;2361;49.540;8.390;2023-12-20T13:02:10;2.50;;;1.40;;
4694;SDS011;2361;49.540;8.390;2023-12-20T13:04:32;1.48;;;1.25;;
4694;SDS011;2361;49.540;8.390;2023-12-20T13:06:54;1.70;;;1.60;;
4694;SDS011;2361;49.540;8.390;2023-12-20T13:09:16;4.25;;;2.00;;
4694;SDS011;2361;49.540;8.390;2023-12-20T13:11:40;2.60;;;1.60;;
4694;SDS011;2361;49.540;8.390;2023-12-20T13:14:02;3.83;;;1.50;;
4694;SDS011;2361;49.540;8.390;2023-12-20T13:16:24;2.80;;;1.48;;
4694;SDS011;2361;49.540;8.390;2023-12-20T13:18:47;2.70;;;1.90;;
4694;SDS011;2361;49.540;8.390;2023-12-20T13:21:09;2.80;;;1.60;;
4694;SDS011;2361;49.540;8.390;2023-12-20T13:23:31;2.83;;;1.52;;
4694;SDS011;2361;49.540;8.390;2023-12-20T13:25:53;3.15;;;1.50;;
4694;SDS011;2361;49.540;8.390;2023-12-20T13:28:15;3.80;;;1.90;;
4694;SDS011;2361;49.540;8.390;2023-12-20T13:30:37;2.00;;;1.40;;
4694;SDS011;2361;49.540;8.390;2023-12-20T13:33:00;2.63;;;1.70;;
4694;SDS011;2361;49.540;8.390;2023-12-20T13:35:22;3.17;;;1.88;;
4694;SDS011;2361;49.540;8.390;2023-12-20T13:37:44;4.43;;;1.60;;
4694;SDS011;2361;49.540;8.390;2023-12-20T13:40:07;4.90;;;1.90;;
4694;SDS011;2361;49.540;8.390;2023-12-20T13:42:29;2.60;;;1.60;;
4694;SDS011;2361;49.540;8.390;2023-12-20T13:44:51;5.22;;;1.75;;
4694;SDS011;2361;49.540;8.390;2023-12-20T13:47:13;6.53;;;1.77;;
4694;SDS011;2361;49.540;8.390;2023-12-20T13:49:35;3.33;;;1.60;;
4694;SDS011;2361;49.540;8.390;2023-12-20T13:51:57;2.30;;;1.50;;
4694;SDS011;2361;49.540;8.390;2023-12-20T13:54:19;3.40;;;1.63;;
4694;SDS011;2361;49.540;8.390;2023-12-20T13:56:43;5.13;;;1.70;;
4694;SDS011;2361;49.540;8.390;2023-12-20T13:59:24;2.83;;;1.70;;
4694;SDS011;2361;49.540;8.390;2023-12-20T14:01:47;2.45;;;1.40;;
4694;SDS011;2361;49.540;8.390;2023-12-20T14:04:11;3.85;;;1.70;;
4694;SDS011;2361;49.540;8.390;2023-12-20T14:06:53;3.30;;;1.60;;
4694;SDS011;2361;49.540;8.390;2023-12-20T14:09:15;1.38;;;1.27;;
4694;SDS011;2361;49.540;8.390;2023-12-20T14:11:37;1.60;;;1.50;;
4694;SDS011;2361;49.540;8.390;2023-12-20T14:14:02;3.67;;;1.90;;
4694;SDS011;2361;49.540;8.390;2023-12-20T14:16:24;2.83;;;1.50;;
4694;SDS011;2361;49.540;8.390;2023-12-20T14:18:46;6.35;;;1.80;;
4694;SDS011;2361;49.540;8.390;2023-12-20T14:21:08;3.17;;;1.50;;
4694;SDS011;2361;49.540;8.390;2023-12-20T14:23:31;2.70;;;1.40;;
4694;SDS011;2361;49.540;8.390;2023-12-20T14:25:54;3.58;;;1.65;;
4694;SDS011;2361;49.540;8.390;2023-12-20T14:28:19;3.88;;;1.60;;
4694;SDS011;2361;49.540;8.390;2023-12-20T14:30:41;4.20;;;1.80;;
4694;SDS011;2361;49.540;8.390;2023-12-20T14:33:04;2.00;;;1.50;;
4694;SDS011;2361;49.540;8.390;2023-12-20T14:35:26;2.30;;;1.40;;
4694;SDS011;2361;49.540;8.390;2023-12-20T14:37:48;1.60;;;1.50;;
4694;SDS011;2361;49.540;8.390;2023-12-20T14:40:11;3.15;;;1.70;;
4694;SDS011;2361;49.540;8.390;2023-12-20T14:42:37;3.47;;;1.73;;
4694;SDS011;2361;49.540;8.390;2023-12-20T14:44:59;4.88;;;1.70;;
4694;SDS011;2361;49.540;8.390;2023-12-20T14:47:21;2.80;;;1.20;;
4694;SDS011;2361;49.540;8.390;2023-12-20T14:49:42;3.28;;;2.00;;
4694;SDS011;2361;49.540;8.390;2023-12-20T14:52:05;1.50;;;1.40;;
4694;SDS011;2361;49.540;8.390;2023-12-20T14:54:27;1.92;;;1.40;;